createdAt,value
2022-08-26T00:01:10.487Z,2.20
2022-08-26T00:03:37.121Z,2.70
2022-08-26T00:06:03.756Z,2.27
2022-08-26T00:08:30.196Z,1.93
2022-08-26T00:10:56.824Z,2.70
2022-08-26T00:13:26.330Z,2.37
2022-08-26T00:15:52.912Z,2.43
2022-08-26T00:18:22.286Z,2.90
2022-08-26T00:20:49.251Z,3.63
2022-08-26T00:23:15.791Z,3.20
2022-08-26T00:25:42.730Z,2.10
2022-08-26T00:28:09.612Z,2.07
2022-08-26T00:30:38.021Z,2.97
2022-08-26T00:33:06.129Z,3.30
2022-08-26T00:35:34.769Z,2.60
2022-08-26T00:38:02.920Z,2.60
2022-08-26T00:40:34.716Z,1.73
2022-08-26T00:43:02.588Z,2.70
2022-08-26T00:45:42.096Z,2.20
2022-08-26T00:48:10.115Z,2.80
2022-08-26T00:50:41.811Z,3.10
2022-08-26T00:53:21.540Z,1.30
2022-08-26T00:55:57.896Z,2.07
2022-08-26T00:58:26.904Z,2.83
2022-08-26T01:00:54.078Z,2.50
2022-08-26T01:03:25.516Z,1.90
2022-08-26T01:05:56.971Z,1.77
2022-08-26T01:08:24.760Z,2.40
2022-08-26T01:10:54.922Z,1.77
2022-08-26T01:13:23.056Z,2.03
2022-08-26T01:15:55.889Z,2.97
2022-08-26T01:18:23.260Z,2.03
2022-08-26T01:21:02.884Z,2.30
2022-08-26T01:23:33.728Z,2.97
2022-08-26T01:26:05.132Z,1.80
2022-08-26T01:28:33.780Z,2.80
2022-08-26T01:31:03.865Z,3.17
2022-08-26T01:33:42.569Z,2.20
2022-08-26T01:36:10.879Z,2.07
2022-08-26T01:38:37.452Z,2.47
2022-08-26T01:41:04.992Z,2.70
2022-08-26T01:43:45.932Z,2.83
2022-08-26T01:46:14.548Z,2.53
2022-08-26T01:48:44.040Z,2.80
2022-08-26T01:51:13.902Z,2.50
2022-08-26T01:53:42.097Z,2.10
2022-08-26T01:56:12.959Z,4.17
2022-08-26T01:58:52.249Z,3.77
2022-08-26T02:01:19.964Z,2.33
2022-08-26T02:04:17.632Z,2.50
2022-08-26T02:06:45.036Z,1.83
2022-08-26T02:09:12.603Z,3.67
2022-08-26T02:11:41.514Z,2.63
2022-08-26T02:14:24.497Z,2.90
2022-08-26T02:16:55.310Z,1.80
2022-08-26T02:19:29.365Z,1.70
2022-08-26T02:21:59.577Z,2.53
2022-08-26T02:24:29.839Z,2.53
2022-08-26T02:26:58.080Z,2.33
2022-08-26T02:29:29.133Z,2.67
2022-08-26T02:31:57.889Z,2.90
2022-08-26T02:34:31.326Z,2.67
2022-08-26T02:37:00.030Z,3.50
2022-08-26T02:39:27.283Z,2.63
2022-08-26T02:41:55.064Z,2.67
2022-08-26T02:44:21.493Z,2.20
2022-08-26T02:46:48.275Z,3.40
2022-08-26T02:49:17.138Z,2.40
2022-08-26T02:51:43.818Z,2.03
2022-08-26T02:54:10.402Z,3.20
2022-08-26T02:56:37.421Z,2.10
2022-08-26T02:59:04.120Z,2.90
2022-08-26T03:01:34.208Z,3.87
2022-08-26T03:04:02.588Z,3.83
2022-08-26T03:06:29.712Z,3.20
2022-08-26T03:08:56.388Z,3.00
2022-08-26T03:11:23.763Z,2.20
2022-08-26T03:13:51.830Z,2.30
2022-08-26T03:16:18.855Z,2.73
2022-08-26T03:18:52.106Z,2.60
2022-08-26T03:21:19.725Z,3.27
2022-08-26T03:23:46.507Z,3.17
2022-08-26T03:26:14.835Z,2.37
2022-08-26T03:29:01.714Z,3.07
2022-08-26T03:31:29.623Z,2.80
2022-08-26T03:33:59.577Z,3.33
2022-08-26T03:36:27.132Z,2.63
2022-08-26T03:38:53.775Z,3.30
2022-08-26T03:41:21.260Z,2.60
2022-08-26T03:43:50.630Z,3.13
2022-08-26T03:46:18.640Z,2.57
2022-08-26T03:48:45.718Z,3.80
2022-08-26T03:51:15.101Z,2.67
2022-08-26T03:53:45.373Z,3.60
2022-08-26T03:56:11.769Z,3.87
2022-08-26T03:58:38.751Z,2.43
2022-08-26T04:01:09.187Z,3.10
2022-08-26T04:03:54.247Z,2.73
2022-08-26T04:06:20.707Z,1.50
2022-08-26T04:08:48.141Z,2.17
2022-08-26T04:11:22.779Z,2.17
2022-08-26T04:13:50.319Z,3.00
2022-08-26T04:16:17.974Z,3.30
2022-08-26T04:18:46.893Z,2.20
2022-08-26T04:21:18.247Z,2.63
2022-08-26T04:23:47.305Z,2.20
2022-08-26T04:26:15.094Z,3.80
2022-08-26T04:28:41.711Z,2.60
2022-08-26T04:31:12.427Z,2.00
2022-08-26T04:33:41.770Z,2.77
2022-08-26T04:36:09.207Z,2.23
2022-08-26T04:38:36.455Z,2.63
2022-08-26T04:41:05.561Z,2.67
2022-08-26T04:43:41.710Z,2.63
2022-08-26T04:46:09.447Z,3.60
2022-08-26T04:48:40.806Z,3.10
2022-08-26T04:51:07.364Z,3.07
2022-08-26T04:53:34.777Z,2.87
2022-08-26T04:56:01.702Z,3.43
2022-08-26T04:58:30.970Z,3.03
2022-08-26T05:00:58.371Z,3.33
2022-08-26T05:03:27.038Z,3.00
2022-08-26T05:05:54.395Z,2.37
2022-08-26T05:08:22.536Z,3.37
2022-08-26T05:10:54.145Z,2.23
2022-08-26T05:13:21.082Z,2.70
2022-08-26T05:15:48.881Z,2.37
2022-08-26T05:18:17.759Z,3.20
2022-08-26T05:20:50.245Z,3.10
2022-08-26T05:23:17.643Z,1.80
2022-08-26T05:25:46.973Z,2.97
2022-08-26T05:28:16.125Z,1.93
2022-08-26T05:30:44.469Z,3.80
2022-08-26T05:33:12.079Z,2.50
2022-08-26T05:35:39.133Z,2.30
2022-08-26T05:38:12.410Z,3.67
2022-08-26T05:40:44.350Z,2.67
2022-08-26T05:43:11.998Z,3.63
2022-08-26T05:45:45.920Z,2.83
2022-08-26T05:48:14.328Z,2.80
2022-08-26T05:50:43.276Z,2.47
2022-08-26T05:53:11.591Z,1.83
2022-08-26T05:55:45.627Z,4.07
2022-08-26T05:58:13.102Z,3.77
2022-08-26T06:00:40.354Z,3.63
2022-08-26T06:03:08.626Z,3.70
2022-08-26T06:05:39.320Z,3.20
2022-08-26T06:08:13.531Z,4.97
2022-08-26T06:11:01.421Z,5.00
2022-08-26T06:13:30.351Z,8.93
2022-08-26T06:16:00.005Z,8.40
2022-08-26T06:18:34.661Z,8.10
2022-08-26T06:21:22.132Z,10.90
2022-08-26T06:24:09.924Z,8.83
2022-08-26T06:26:37.107Z,7.97
2022-08-26T06:29:05.683Z,6.77
2022-08-26T06:31:33.808Z,8.70
2022-08-26T06:34:01.257Z,8.90
2022-08-26T06:36:30.608Z,7.77
2022-08-26T06:39:00.828Z,7.67
2022-08-26T06:41:27.438Z,9.60
2022-08-26T06:43:53.874Z,10.80
2022-08-26T06:46:21.693Z,12.23
2022-08-26T06:48:48.723Z,12.83
2022-08-26T06:51:17.957Z,12.83
2022-08-26T06:53:46.927Z,12.63
2022-08-26T06:56:18.822Z,12.60
2022-08-26T06:58:46.064Z,10.63
2022-08-26T07:01:24.300Z,12.27
2022-08-26T07:03:52.307Z,10.93
2022-08-26T07:06:21.600Z,11.93
2022-08-26T07:08:53.250Z,12.50
2022-08-26T07:11:20.872Z,12.17
2022-08-26T07:13:47.803Z,10.90
2022-08-26T07:16:17.458Z,13.10
2022-08-26T07:18:45.758Z,11.70
2022-08-26T07:21:15.539Z,13.27
2022-08-26T07:23:42.277Z,13.97
2022-08-26T07:26:12.057Z,11.43
2022-08-26T07:28:38.518Z,13.20
2022-08-26T07:31:07.444Z,10.63
2022-08-26T07:33:38.585Z,13.23
2022-08-26T07:36:07.975Z,14.00
2022-08-26T07:38:35.889Z,11.40
2022-08-26T07:41:02.779Z,11.33
2022-08-26T07:43:30.284Z,11.37
2022-08-26T07:45:57.221Z,10.63
2022-08-26T07:48:24.100Z,8.87
2022-08-26T07:50:52.572Z,9.77
2022-08-26T07:53:21.385Z,10.07
2022-08-26T07:55:48.515Z,12.30
2022-08-26T07:58:15.897Z,11.10
2022-08-26T08:00:42.412Z,12.40
2022-08-26T08:03:10.413Z,12.00
2022-08-26T08:05:38.026Z,11.07
2022-08-26T08:08:26.747Z,11.57
2022-08-26T08:10:55.546Z,11.47
2022-08-26T08:13:23.073Z,13.53
2022-08-26T08:15:50.528Z,11.67
2022-08-26T08:18:18.085Z,11.87
2022-08-26T08:20:59.273Z,12.13
2022-08-26T08:23:32.272Z,11.20
2022-08-26T08:26:04.207Z,13.13
2022-08-26T08:28:30.780Z,12.43
2022-08-26T08:30:57.825Z,12.40
2022-08-26T08:33:24.458Z,11.07
2022-08-26T08:35:50.925Z,11.10
2022-08-26T08:38:17.442Z,11.30
2022-08-26T08:40:45.494Z,11.20
2022-08-26T08:43:14.796Z,12.13
2022-08-26T08:45:50.739Z,12.97
2022-08-26T08:48:31.447Z,11.70
2022-08-26T08:51:08.336Z,10.67
2022-08-26T08:53:42.188Z,11.10
2022-08-26T08:56:23.734Z,11.30
2022-08-26T08:59:14.654Z,11.67
2022-08-26T09:02:13.275Z,11.63
2022-08-26T09:05:02.143Z,9.87
2022-08-26T09:07:48.090Z,11.87
2022-08-26T09:10:50.973Z,12.93
2022-08-26T09:13:25.287Z,10.57
2022-08-26T09:15:59.664Z,11.63
2022-08-26T09:18:47.504Z,13.00
2022-08-26T09:21:17.928Z,8.60
2022-08-26T09:23:49.339Z,12.20
2022-08-26T09:26:39.142Z,10.83
2022-08-26T09:29:13.648Z,11.10
2022-08-26T09:31:41.332Z,11.97
2022-08-26T09:34:17.345Z,11.67
2022-08-26T09:36:48.531Z,11.03
2022-08-26T09:39:24.027Z,12.23
2022-08-26T09:42:08.020Z,11.40
2022-08-26T09:44:56.799Z,13.23
2022-08-26T09:47:30.101Z,10.40
2022-08-26T09:50:09.917Z,11.47
2022-08-26T09:52:40.494Z,12.30
2022-08-26T09:55:23.088Z,10.37
2022-08-26T09:57:52.864Z,10.10
2022-08-26T10:00:39.504Z,11.30
2022-08-26T10:03:10.658Z,10.97
2022-08-26T10:05:41.277Z,10.63
2022-08-26T10:08:33.251Z,12.50
2022-08-26T10:11:04.381Z,11.50
2022-08-26T10:13:31.177Z,11.53
2022-08-26T10:16:10.761Z,10.13
2022-08-26T10:18:42.977Z,10.90
2022-08-26T10:21:18.037Z,8.40
2022-08-26T10:23:51.697Z,9.80
2022-08-26T10:26:26.547Z,10.90
2022-08-26T10:29:08.900Z,12.27
2022-08-26T10:31:44.412Z,10.97
2022-08-26T10:34:12.476Z,9.63
2022-08-26T10:39:46.012Z,10.40
2022-08-26T10:42:32.248Z,11.50
2022-08-26T10:45:14.994Z,10.90
2022-08-26T10:47:54.088Z,9.40
2022-08-26T10:50:24.755Z,8.57
2022-08-26T10:53:05.811Z,9.67
2022-08-26T10:55:49.039Z,13.37
2022-08-26T10:58:27.666Z,9.90
2022-08-26T11:01:33.848Z,12.10
2022-08-26T11:04:16.820Z,10.30
2022-08-26T11:06:46.007Z,10.40
2022-08-26T11:09:45.048Z,11.97
2022-08-26T11:12:42.031Z,11.50
2022-08-26T11:15:36.855Z,10.50
2022-08-26T11:18:09.490Z,12.30
2022-08-26T11:20:41.898Z,11.50
2022-08-26T11:23:20.608Z,10.13
2022-08-26T11:25:56.938Z,11.53
2022-08-26T11:28:34.592Z,12.53
2022-08-26T11:31:01.668Z,11.70
2022-08-26T11:33:43.819Z,10.90
2022-08-26T11:36:25.966Z,11.43
2022-08-26T11:38:54.664Z,11.50
2022-08-26T11:41:22.897Z,11.67
2022-08-26T11:43:52.162Z,12.47
2022-08-26T11:46:28.246Z,10.47
2022-08-26T11:49:05.133Z,13.47
2022-08-26T11:51:35.969Z,10.90
2022-08-26T11:54:30.547Z,9.47
2022-08-26T11:57:09.285Z,11.17
2022-08-26T11:59:39.075Z,9.23
2022-08-26T12:02:15.272Z,11.60
2022-08-26T12:04:46.274Z,11.87
2022-08-26T12:07:13.353Z,11.87
2022-08-26T12:09:56.427Z,12.70
2022-08-26T12:12:42.434Z,11.97
2022-08-26T12:15:22.662Z,11.07
2022-08-26T12:17:54.653Z,10.90
2022-08-26T12:20:48.536Z,10.90
2022-08-26T12:23:24.756Z,9.80
2022-08-26T12:25:54.060Z,11.27
2022-08-26T12:28:21.726Z,11.07
2022-08-26T12:31:04.166Z,9.57
2022-08-26T12:33:33.927Z,8.90
2022-08-26T12:36:01.946Z,10.97
2022-08-26T12:38:29.794Z,10.20
2022-08-26T12:40:57.070Z,11.80
2022-08-26T12:43:56.640Z,10.50
2022-08-26T12:46:28.254Z,11.30
2022-08-26T12:48:54.974Z,11.17
2022-08-26T12:51:28.245Z,10.87
2022-08-26T12:53:55.477Z,11.50
2022-08-26T12:56:42.990Z,12.03
2022-08-26T12:59:23.142Z,10.73
2022-08-26T13:01:50.483Z,8.80
2022-08-26T13:04:35.788Z,7.30
2022-08-26T13:07:21.655Z,6.33
2022-08-26T13:09:50.462Z,5.80
2022-08-26T13:12:28.770Z,5.03
2022-08-26T13:14:55.764Z,6.23
2022-08-26T13:17:22.181Z,6.00
2022-08-26T13:19:48.608Z,4.77
2022-08-26T13:22:18.997Z,4.80
2022-08-26T13:24:45.728Z,5.07
2022-08-26T13:27:14.856Z,3.90
2022-08-26T13:29:41.534Z,4.57
2022-08-26T13:32:09.131Z,5.20
2022-08-26T13:34:37.428Z,8.00
2022-08-26T13:37:04.698Z,7.77
2022-08-26T13:39:31.229Z,7.43
2022-08-26T13:41:57.724Z,8.00
2022-08-26T13:44:24.437Z,7.80
2022-08-26T13:46:51.136Z,5.57
2022-08-26T13:49:17.647Z,5.67
2022-08-26T13:51:44.161Z,7.30
2022-08-26T13:54:10.645Z,6.67
2022-08-26T13:56:37.390Z,6.77
2022-08-26T13:59:05.625Z,5.00
2022-08-26T14:01:34.178Z,6.77
2022-08-26T14:04:00.677Z,4.90
2022-08-26T14:06:27.208Z,4.97
2022-08-26T14:08:53.657Z,9.97
2022-08-26T14:11:21.291Z,9.90
2022-08-26T14:13:47.842Z,8.93
2022-08-26T14:16:24.190Z,9.30
2022-08-26T14:18:51.119Z,8.53
2022-08-26T14:21:18.135Z,11.00
2022-08-26T14:23:44.746Z,8.93
2022-08-26T14:26:14.287Z,10.30
2022-08-26T14:28:55.952Z,9.13
2022-08-26T14:31:23.757Z,11.23
2022-08-26T14:33:50.578Z,10.37
2022-08-26T14:36:29.078Z,10.63
2022-08-26T14:38:58.133Z,11.67
2022-08-26T14:41:25.360Z,10.60
2022-08-26T14:44:00.178Z,8.90
2022-08-26T14:46:30.245Z,8.63
2022-08-26T14:49:01.047Z,8.43
2022-08-26T14:51:30.239Z,7.37
2022-08-26T14:54:11.752Z,7.17
2022-08-26T14:56:48.875Z,6.33
2022-08-26T14:59:18.613Z,6.57
2022-08-26T15:01:45.508Z,7.80
2022-08-26T15:04:12.340Z,7.40
2022-08-26T15:06:39.418Z,6.90
2022-08-26T15:09:06.055Z,8.30
2022-08-26T15:11:32.932Z,8.47
2022-08-26T15:13:59.884Z,8.40
2022-08-26T15:16:28.886Z,8.37
2022-08-26T15:18:55.889Z,8.43
2022-08-26T15:21:23.208Z,9.60
2022-08-26T15:23:50.395Z,10.80
2022-08-26T15:26:18.139Z,11.53
2022-08-26T15:28:45.148Z,10.13
2022-08-26T15:31:12.046Z,11.30
2022-08-26T15:33:39.174Z,8.57
2022-08-26T15:36:07.768Z,9.27
2022-08-26T15:38:37.357Z,11.57
2022-08-26T15:41:05.691Z,8.43
2022-08-26T15:43:32.536Z,9.10
2022-08-26T15:45:59.257Z,9.27
2022-08-26T15:48:25.753Z,9.83
2022-08-26T15:51:00.196Z,7.00
2022-08-26T15:53:29.486Z,8.77
2022-08-26T15:55:56.734Z,7.67
2022-08-26T15:58:24.964Z,9.30
2022-08-26T16:00:54.325Z,8.67
2022-08-26T16:03:20.847Z,7.03
2022-08-26T16:05:48.076Z,7.13
2022-08-26T16:08:15.393Z,8.43
2022-08-26T16:10:49.951Z,6.20
2022-08-26T16:13:18.709Z,7.13
2022-08-26T16:15:46.095Z,5.80
2022-08-26T16:18:13.851Z,5.30
2022-08-26T16:20:51.473Z,6.37
2022-08-26T16:23:35.932Z,6.60
2022-08-26T16:26:10.838Z,6.23
2022-08-26T16:28:38.368Z,5.83
2022-08-26T16:31:06.175Z,5.33
2022-08-26T16:33:32.736Z,6.00
2022-08-26T16:35:59.132Z,5.17
2022-08-26T16:38:25.616Z,5.97
2022-08-26T16:40:52.035Z,5.90
2022-08-26T16:43:18.454Z,5.37
2022-08-26T16:45:44.925Z,4.90
2022-08-26T16:48:11.455Z,5.00
2022-08-26T16:50:40.552Z,5.60
2022-08-26T16:53:07.349Z,3.80
2022-08-26T16:55:35.262Z,4.87
2022-08-26T16:58:02.180Z,5.33
2022-08-26T17:00:31.166Z,4.30
2022-08-26T17:02:59.753Z,3.77
2022-08-26T17:05:27.637Z,4.40
2022-08-26T17:07:59.437Z,3.87
2022-08-26T17:10:27.735Z,5.53
2022-08-26T17:12:54.832Z,4.27
2022-08-26T17:15:23.666Z,4.00
2022-08-26T17:17:54.213Z,3.83
2022-08-26T17:20:22.625Z,3.47
2022-08-26T17:22:51.536Z,4.37
2022-08-26T17:25:21.889Z,3.43
2022-08-26T17:27:48.726Z,3.67
2022-08-26T17:30:16.448Z,4.93
2022-08-26T17:32:43.426Z,3.70
2022-08-26T17:35:13.034Z,3.00
2022-08-26T17:37:40.267Z,3.83
2022-08-26T17:40:09.853Z,3.90
2022-08-26T17:42:40.708Z,3.57
2022-08-26T17:45:08.437Z,3.03
2022-08-26T17:47:34.948Z,4.93
2022-08-26T17:50:02.257Z,4.37
2022-08-26T17:52:29.281Z,3.50
2022-08-26T17:54:56.828Z,2.90
2022-08-26T17:57:24.774Z,4.50
2022-08-26T17:59:52.776Z,3.17
2022-08-26T18:02:20.919Z,3.40
2022-08-26T18:04:47.438Z,4.50
2022-08-26T18:07:14.468Z,3.10
2022-08-26T18:09:40.900Z,4.83
2022-08-26T18:12:07.863Z,4.37
2022-08-26T18:14:34.355Z,4.50
2022-08-26T18:17:01.430Z,4.00
2022-08-26T18:19:29.352Z,3.30
2022-08-26T18:21:55.918Z,3.33
2022-08-26T18:24:22.449Z,2.90
2022-08-26T18:26:50.791Z,3.27
2022-08-26T18:29:19.294Z,2.93
2022-08-26T18:31:45.801Z,4.27
2022-08-26T18:34:12.844Z,3.50
2022-08-26T18:36:42.579Z,3.43
2022-08-26T18:39:10.562Z,4.40
2022-08-26T18:41:45.812Z,3.83
2022-08-26T18:44:14.204Z,3.10
2022-08-26T18:46:41.136Z,3.40
2022-08-26T18:49:08.282Z,4.23
2022-08-26T18:51:35.306Z,4.50
2022-08-26T18:54:05.348Z,3.93
2022-08-26T18:56:35.513Z,4.97
2022-08-26T18:59:03.308Z,5.13
2022-08-26T19:01:30.991Z,4.20
2022-08-26T19:03:59.524Z,4.63
2022-08-26T19:06:28.143Z,4.43
2022-08-26T19:08:54.981Z,5.70
2022-08-26T19:11:31.213Z,5.30
2022-08-26T19:13:58.595Z,5.93
2022-08-26T19:16:26.883Z,6.73
2022-08-26T19:18:54.440Z,5.10
2022-08-26T19:21:22.460Z,5.77
2022-08-26T19:23:49.847Z,6.70
2022-08-26T19:26:16.784Z,5.80
2022-08-26T19:28:43.358Z,4.77
2022-08-26T19:31:11.693Z,4.50
2022-08-26T19:33:43.001Z,5.40
2022-08-26T19:36:15.014Z,4.67
2022-08-26T19:38:42.716Z,5.10
2022-08-26T19:41:18.164Z,4.00
2022-08-26T19:43:46.271Z,2.80
2022-08-26T19:46:19.907Z,4.20
2022-08-26T19:48:47.369Z,4.43
2022-08-26T19:51:20.158Z,4.27
2022-08-26T19:53:48.204Z,4.47
2022-08-26T19:56:15.247Z,3.50
2022-08-26T19:58:42.150Z,4.00
2022-08-26T20:01:08.888Z,4.80
2022-08-26T20:03:36.054Z,4.00
2022-08-26T20:06:05.126Z,2.73
2022-08-26T20:08:32.532Z,4.17
2022-08-26T20:11:04.804Z,5.70
2022-08-26T20:13:32.303Z,5.43
2022-08-26T20:15:58.938Z,5.47
2022-08-26T20:18:44.060Z,4.60
2022-08-26T20:21:29.394Z,4.67
2022-08-26T20:24:01.990Z,5.50
2022-08-26T20:26:31.027Z,4.73
2022-08-26T20:28:57.832Z,5.47
2022-08-26T20:31:25.669Z,4.23
2022-08-26T20:33:52.740Z,3.93
2022-08-26T20:36:22.515Z,4.93
2022-08-26T20:38:50.224Z,4.50
2022-08-26T20:41:16.950Z,3.67
2022-08-26T20:43:44.385Z,4.77
2022-08-26T20:46:18.155Z,4.30
2022-08-26T20:48:47.899Z,3.10
2022-08-26T20:51:15.041Z,2.90
2022-08-26T20:53:41.583Z,3.00
2022-08-26T20:56:10.159Z,2.83
2022-08-26T20:58:37.557Z,2.90
2022-08-26T21:01:07.984Z,2.70
2022-08-26T21:03:36.136Z,3.53
2022-08-26T21:06:03.726Z,2.93
2022-08-26T21:08:33.156Z,2.93
2022-08-26T21:11:00.952Z,2.53
2022-08-26T21:13:35.755Z,3.90
2022-08-26T21:16:10.410Z,3.53
2022-08-26T21:18:36.922Z,4.60
2022-08-26T21:21:08.189Z,3.43
2022-08-26T21:23:36.057Z,3.00
2022-08-26T21:26:04.952Z,3.77
2022-08-26T21:28:31.699Z,3.70
2022-08-26T21:30:58.169Z,3.37
2022-08-26T21:33:24.597Z,3.80
2022-08-26T21:35:55.855Z,3.47
2022-08-26T21:38:22.599Z,3.80
2022-08-26T21:41:02.337Z,3.13
2022-08-26T21:43:35.348Z,4.13
2022-08-26T21:46:11.370Z,3.67
2022-08-26T21:48:39.487Z,3.83
2022-08-26T21:51:06.306Z,4.20
2022-08-26T21:53:32.709Z,3.53
2022-08-26T21:55:59.151Z,3.83
2022-08-26T21:58:25.568Z,4.00
2022-08-26T22:00:52.260Z,3.30
2022-08-26T22:03:18.679Z,4.43
2022-08-26T22:05:50.395Z,3.70
2022-08-26T22:08:23.406Z,4.13
2022-08-26T22:10:54.985Z,3.73
2022-08-26T22:13:25.761Z,3.30
2022-08-26T22:15:52.186Z,3.73
2022-08-26T22:18:21.123Z,4.30
2022-08-26T22:20:47.909Z,3.20
2022-08-26T22:23:14.342Z,4.63
2022-08-26T22:25:44.271Z,4.93
2022-08-26T22:28:10.863Z,2.73
2022-08-26T22:30:38.004Z,4.83
2022-08-26T22:33:05.533Z,3.90
2022-08-26T22:35:32.043Z,4.10
2022-08-26T22:37:59.222Z,5.13
2022-08-26T22:40:25.747Z,3.00
2022-08-26T22:42:55.704Z,4.20
2022-08-26T22:45:27.370Z,4.20
2022-08-26T22:47:53.858Z,5.23
2022-08-26T22:50:20.292Z,4.07
2022-08-26T22:52:46.802Z,4.50
2022-08-26T22:55:13.258Z,4.37
2022-08-26T22:57:39.790Z,4.00
2022-08-26T23:00:06.968Z,5.77
2022-08-26T23:02:38.339Z,4.40
2022-08-26T23:05:06.193Z,3.50
2022-08-26T23:07:33.251Z,3.90
2022-08-26T23:09:59.835Z,3.37
2022-08-26T23:12:27.511Z,3.17
2022-08-26T23:14:53.916Z,2.40
2022-08-26T23:17:21.318Z,3.80
2022-08-26T23:19:47.726Z,4.00
2022-08-26T23:22:14.317Z,2.83
2022-08-26T23:24:40.745Z,2.40
2022-08-26T23:27:07.252Z,2.87
2022-08-26T23:29:35.586Z,3.40
2022-08-26T23:32:04.153Z,3.73
2022-08-26T23:34:49.107Z,3.60
2022-08-26T23:37:15.600Z,2.70
2022-08-26T23:39:42.086Z,3.10
2022-08-26T23:42:08.547Z,3.17
2022-08-26T23:44:35.005Z,2.67
2022-08-26T23:47:01.653Z,2.90
2022-08-26T23:49:28.757Z,2.17
2022-08-26T23:52:13.944Z,3.60
2022-08-26T23:54:40.538Z,3.33
2022-08-26T23:57:07.609Z,3.67
2022-08-26T23:59:34.208Z,3.57
